createdAt,value
2022-11-23T00:00:03.500Z,23.57
2022-11-23T00:00:34.903Z,23.53
2022-11-23T00:01:06.330Z,23.54
2022-11-23T00:01:37.784Z,23.53
2022-11-23T00:02:09.262Z,23.53
2022-11-23T00:02:40.703Z,23.51
2022-11-23T00:03:12.127Z,23.59
2022-11-23T00:03:43.529Z,23.55
2022-11-23T00:04:14.937Z,23.52
2022-11-23T00:04:46.348Z,23.53
2022-11-23T00:05:17.750Z,23.51
2022-11-23T00:05:49.201Z,23.50
2022-11-23T00:06:20.630Z,23.51
2022-11-23T00:06:52.045Z,23.51
2022-11-23T00:07:23.629Z,23.51
2022-11-23T00:07:55.127Z,23.50
2022-11-23T00:08:26.587Z,23.55
2022-11-23T00:08:57.941Z,23.57
2022-11-23T00:09:29.513Z,23.57
2022-11-23T00:10:01.174Z,23.59
2022-11-23T00:10:32.593Z,23.59
2022-11-23T00:11:04.039Z,23.58
2022-11-23T00:11:35.443Z,23.58
2022-11-23T00:12:06.924Z,23.59
2022-11-23T00:12:38.370Z,23.60
2022-11-23T00:13:09.767Z,23.61
2022-11-23T00:13:41.153Z,23.61
2022-11-23T00:14:12.566Z,23.64
2022-11-23T00:14:43.958Z,23.60
2022-11-23T00:15:15.441Z,23.59
2022-11-23T00:15:46.867Z,23.60
2022-11-23T00:16:18.234Z,23.59
2022-11-23T00:16:49.689Z,23.58
2022-11-23T00:17:21.112Z,23.54
2022-11-23T00:17:52.552Z,23.55
2022-11-23T00:18:24.011Z,23.54
2022-11-23T00:18:55.410Z,23.56
2022-11-23T00:19:26.901Z,23.56
2022-11-23T00:19:58.517Z,23.55
2022-11-23T00:20:30.062Z,23.55
2022-11-23T00:21:01.568Z,23.56
2022-11-23T00:21:32.990Z,23.58
2022-11-23T00:22:04.398Z,23.56
2022-11-23T00:22:35.836Z,23.55
2022-11-23T00:23:07.351Z,23.53
2022-11-23T00:23:38.775Z,23.55
2022-11-23T00:24:10.164Z,23.57
2022-11-23T00:24:41.632Z,23.59
2022-11-23T00:25:13.134Z,23.56
2022-11-23T00:25:44.579Z,23.56
2022-11-23T00:26:16.023Z,23.57
2022-11-23T00:26:47.437Z,23.58
2022-11-23T00:27:18.841Z,23.52
2022-11-23T00:27:50.249Z,23.51
2022-11-23T00:28:21.779Z,23.48
2022-11-23T00:28:53.158Z,23.54
2022-11-23T00:29:24.560Z,23.56
2022-11-23T00:29:55.994Z,23.54
2022-11-23T00:30:27.439Z,23.54
2022-11-23T00:30:58.829Z,23.55
2022-11-23T00:31:30.214Z,23.53
2022-11-23T00:32:01.594Z,23.54
2022-11-23T00:32:33.004Z,23.52
2022-11-23T00:33:04.428Z,23.54
2022-11-23T00:33:35.837Z,23.53
2022-11-23T00:34:07.264Z,23.54
2022-11-23T00:34:38.643Z,23.55
2022-11-23T00:35:10.088Z,23.57
2022-11-23T00:35:41.547Z,23.53
2022-11-23T00:36:12.938Z,23.54
2022-11-23T00:36:44.319Z,23.55
2022-11-23T00:37:15.716Z,23.56
2022-11-23T00:37:47.211Z,23.54
2022-11-23T00:38:18.640Z,23.52
2022-11-23T00:38:50.076Z,23.53
2022-11-23T00:39:21.478Z,23.53
2022-11-23T00:39:52.850Z,23.54
2022-11-23T00:40:24.257Z,23.53
2022-11-23T00:40:55.703Z,23.54
2022-11-23T00:41:27.088Z,23.57
2022-11-23T00:41:58.438Z,23.57
2022-11-23T00:42:32.586Z,23.59
2022-11-23T00:43:08.042Z,23.55
2022-11-23T00:43:39.435Z,23.59
2022-11-23T00:44:10.825Z,23.56
2022-11-23T00:44:42.206Z,23.57
2022-11-23T00:45:13.637Z,23.56
2022-11-23T00:45:45.015Z,23.58
2022-11-23T00:46:16.409Z,23.57
2022-11-23T00:46:47.885Z,23.54
2022-11-23T00:47:19.308Z,23.57
2022-11-23T00:47:50.744Z,23.58
2022-11-23T00:48:22.217Z,23.56
2022-11-23T00:48:53.661Z,23.53
2022-11-23T00:49:25.094Z,23.53
2022-11-23T00:49:56.544Z,23.53
2022-11-23T00:50:27.919Z,23.52
2022-11-23T00:50:59.330Z,23.52
2022-11-23T00:51:30.729Z,23.51
2022-11-23T00:52:02.160Z,23.54
2022-11-23T00:52:33.678Z,23.53
2022-11-23T00:53:05.083Z,23.51
2022-11-23T00:53:36.647Z,23.55
2022-11-23T00:54:08.073Z,23.56
2022-11-23T00:54:39.458Z,23.54
2022-11-23T00:55:10.831Z,23.56
2022-11-23T00:55:42.228Z,23.54
2022-11-23T00:56:13.615Z,23.54
2022-11-23T00:56:45.014Z,23.56
2022-11-23T00:57:16.395Z,23.55
2022-11-23T00:57:47.840Z,23.56
2022-11-23T00:58:19.209Z,23.54
2022-11-23T00:58:50.580Z,23.56
2022-11-23T00:59:21.977Z,23.53
2022-11-23T00:59:53.421Z,23.54
2022-11-23T01:00:24.850Z,23.49
2022-11-23T01:00:56.236Z,23.57
2022-11-23T01:01:27.729Z,23.55
2022-11-23T01:01:59.211Z,23.50
2022-11-23T01:02:30.606Z,23.53
2022-11-23T01:03:02.217Z,23.53
2022-11-23T01:03:33.689Z,23.54
2022-11-23T01:04:05.066Z,23.59
2022-11-23T01:04:36.454Z,23.61
2022-11-23T01:05:07.859Z,23.57
2022-11-23T01:05:39.310Z,23.55
2022-11-23T01:06:10.718Z,23.55
2022-11-23T01:06:42.147Z,23.57
2022-11-23T01:07:13.614Z,23.57
2022-11-23T01:07:45.056Z,23.57
2022-11-23T01:08:16.531Z,23.54
2022-11-23T01:08:47.957Z,23.57
2022-11-23T01:09:19.346Z,23.56
2022-11-23T01:09:50.749Z,23.58
2022-11-23T01:10:22.148Z,23.60
2022-11-23T01:10:53.562Z,23.58
2022-11-23T01:11:24.967Z,23.58
2022-11-23T01:11:56.335Z,23.56
2022-11-23T01:12:27.771Z,23.60
2022-11-23T01:12:59.170Z,23.57
2022-11-23T01:13:30.644Z,23.56
2022-11-23T01:14:02.061Z,23.52
2022-11-23T01:14:33.517Z,23.52
2022-11-23T01:15:04.920Z,23.53
2022-11-23T01:15:36.317Z,23.50
2022-11-23T01:16:07.762Z,23.55
2022-11-23T01:16:39.183Z,23.57
2022-11-23T01:17:10.632Z,23.58
2022-11-23T01:17:42.071Z,23.58
2022-11-23T01:18:13.445Z,23.58
2022-11-23T01:18:44.889Z,23.55
2022-11-23T01:19:16.278Z,23.53
2022-11-23T01:19:47.702Z,23.55
2022-11-23T01:20:19.138Z,23.55
2022-11-23T01:20:50.578Z,23.54
2022-11-23T01:21:21.979Z,23.54
2022-11-23T01:21:53.376Z,23.52
2022-11-23T01:22:24.817Z,23.55
2022-11-23T01:22:56.268Z,23.53
2022-11-23T01:23:27.627Z,23.56
2022-11-23T01:23:59.114Z,23.53
2022-11-23T01:24:30.503Z,23.52
2022-11-23T01:25:01.968Z,23.54
2022-11-23T01:25:33.369Z,23.54
2022-11-23T01:26:04.829Z,23.58
2022-11-23T01:26:36.256Z,23.58
2022-11-23T01:27:07.680Z,23.59
2022-11-23T01:27:39.074Z,23.53
2022-11-23T01:28:10.463Z,23.55
2022-11-23T01:28:41.843Z,23.56
2022-11-23T01:29:13.310Z,23.55
2022-11-23T01:29:44.719Z,23.54
2022-11-23T01:30:16.109Z,23.55
2022-11-23T01:30:47.492Z,23.58
2022-11-23T01:31:18.909Z,23.57
2022-11-23T01:31:50.373Z,23.55
2022-11-23T01:32:21.831Z,23.55
2022-11-23T01:32:53.247Z,23.52
2022-11-23T01:33:24.648Z,23.50
2022-11-23T01:33:56.061Z,23.54
2022-11-23T01:34:27.523Z,23.53
2022-11-23T01:34:58.928Z,23.53
2022-11-23T01:35:30.311Z,23.54
2022-11-23T01:36:01.840Z,23.52
2022-11-23T01:36:33.373Z,23.52
2022-11-23T01:37:04.837Z,23.57
2022-11-23T01:37:36.220Z,23.54
2022-11-23T01:38:07.584Z,23.54
2022-11-23T01:38:39.010Z,23.53
2022-11-23T01:39:10.444Z,23.52
2022-11-23T01:39:41.913Z,23.52
2022-11-23T01:40:13.304Z,23.50
2022-11-23T01:40:44.718Z,23.51
2022-11-23T01:41:16.111Z,23.51
2022-11-23T01:41:47.515Z,23.49
2022-11-23T01:42:18.934Z,23.51
2022-11-23T01:42:50.314Z,23.48
2022-11-23T01:43:21.745Z,23.51
2022-11-23T01:43:53.148Z,23.51
2022-11-23T01:44:24.518Z,23.50
2022-11-23T01:44:55.938Z,23.48
2022-11-23T01:45:27.353Z,23.51
2022-11-23T01:45:58.772Z,23.54
2022-11-23T01:46:30.193Z,23.53
2022-11-23T01:47:01.623Z,23.52
2022-11-23T01:47:33.056Z,23.55
2022-11-23T01:48:04.425Z,23.54
2022-11-23T01:48:35.808Z,23.49
2022-11-23T01:49:07.213Z,23.52
2022-11-23T01:49:38.604Z,23.55
2022-11-23T01:50:10.016Z,23.54
2022-11-23T01:50:41.431Z,23.55
2022-11-23T01:51:12.844Z,23.54
2022-11-23T01:51:44.415Z,23.53
2022-11-23T01:52:15.848Z,23.54
2022-11-23T01:52:47.258Z,23.56
2022-11-23T01:53:18.740Z,23.52
2022-11-23T01:53:50.180Z,23.52
2022-11-23T01:54:21.589Z,23.50
2022-11-23T01:54:53.012Z,23.52
2022-11-23T01:55:24.391Z,23.52
2022-11-23T01:55:55.855Z,23.52
2022-11-23T01:56:27.314Z,23.51
2022-11-23T01:56:58.722Z,23.54
2022-11-23T01:57:30.148Z,23.55
2022-11-23T01:58:01.565Z,23.53
2022-11-23T01:58:33.098Z,23.54
2022-11-23T01:59:04.603Z,23.60
2022-11-23T01:59:35.975Z,23.56
2022-11-23T02:00:07.356Z,23.56
2022-11-23T02:00:38.717Z,23.55
2022-11-23T02:01:10.167Z,23.52
2022-11-23T02:01:41.614Z,23.52
2022-11-23T02:02:13.065Z,23.53
2022-11-23T02:02:44.481Z,23.53
2022-11-23T02:03:15.883Z,23.55
2022-11-23T02:03:47.313Z,23.52
2022-11-23T02:04:18.802Z,23.52
2022-11-23T02:04:50.213Z,23.56
2022-11-23T02:05:21.646Z,23.56
2022-11-23T02:05:53.048Z,23.56
2022-11-23T02:06:24.485Z,23.57
2022-11-23T02:06:55.929Z,23.55
2022-11-23T02:07:27.411Z,23.56
2022-11-23T02:07:58.992Z,23.53
2022-11-23T02:08:30.362Z,23.53
2022-11-23T02:09:01.778Z,23.52
2022-11-23T02:09:33.730Z,23.54
2022-11-23T02:10:05.339Z,23.55
2022-11-23T02:10:36.764Z,23.55
2022-11-23T02:11:08.158Z,23.55
2022-11-23T02:11:39.600Z,23.55
2022-11-23T02:12:10.994Z,23.58
2022-11-23T02:12:42.406Z,23.51
2022-11-23T02:13:13.814Z,23.54
2022-11-23T02:13:45.275Z,23.54
2022-11-23T02:14:20.456Z,23.56
2022-11-23T02:14:54.771Z,23.54
2022-11-23T02:15:26.219Z,23.58
2022-11-23T02:15:57.626Z,23.56
2022-11-23T02:16:29.059Z,23.54
2022-11-23T02:17:00.460Z,23.53
2022-11-23T02:17:31.898Z,23.53
2022-11-23T02:18:03.314Z,23.55
2022-11-23T02:18:34.829Z,23.54
2022-11-23T02:19:06.231Z,23.54
2022-11-23T02:19:37.625Z,23.50
2022-11-23T02:20:09.067Z,23.50
2022-11-23T02:20:40.689Z,23.54
2022-11-23T02:21:12.148Z,23.53
2022-11-23T02:21:43.570Z,23.50
2022-11-23T02:22:14.987Z,23.54
2022-11-23T02:22:46.417Z,23.54
2022-11-23T02:23:17.808Z,23.56
2022-11-23T02:23:49.227Z,23.54
2022-11-23T02:24:20.617Z,23.55
2022-11-23T02:24:51.994Z,23.54
2022-11-23T02:25:23.480Z,23.54
2022-11-23T02:25:54.862Z,23.57
2022-11-23T02:26:26.255Z,23.56
2022-11-23T02:26:57.657Z,23.56
2022-11-23T02:27:29.072Z,23.54
2022-11-23T02:28:00.524Z,23.56
2022-11-23T02:28:31.990Z,23.54
2022-11-23T02:29:03.610Z,23.55
2022-11-23T02:29:34.989Z,23.55
2022-11-23T02:30:06.369Z,23.55
2022-11-23T02:30:37.820Z,23.55
2022-11-23T02:31:09.183Z,23.55
2022-11-23T02:31:40.587Z,23.54
2022-11-23T02:32:11.998Z,23.54
2022-11-23T02:32:43.383Z,23.56
2022-11-23T02:33:14.793Z,23.57
2022-11-23T02:33:46.212Z,23.55
2022-11-23T02:34:17.653Z,23.54
2022-11-23T02:34:49.060Z,23.54
2022-11-23T02:35:20.459Z,23.53
2022-11-23T02:35:51.856Z,23.52
2022-11-23T02:36:23.251Z,23.52
2022-11-23T02:36:54.672Z,23.51
2022-11-23T02:37:26.086Z,23.52
2022-11-23T02:37:57.518Z,23.52
2022-11-23T02:38:28.901Z,23.54
2022-11-23T02:39:00.328Z,23.53
2022-11-23T02:39:32.052Z,23.51
2022-11-23T02:40:03.763Z,23.49
2022-11-23T02:40:35.202Z,23.51
2022-11-23T02:41:06.690Z,23.53
2022-11-23T02:41:38.088Z,23.51
2022-11-23T02:42:09.496Z,23.55
2022-11-23T02:42:40.864Z,23.51
2022-11-23T02:43:12.253Z,23.51
2022-11-23T02:43:43.682Z,23.51
2022-11-23T02:44:15.098Z,23.52
2022-11-23T02:44:46.486Z,23.54
2022-11-23T02:45:17.900Z,23.54
2022-11-23T02:45:49.300Z,23.53
2022-11-23T02:46:20.785Z,23.53
2022-11-23T02:46:52.212Z,23.53
2022-11-23T02:47:23.700Z,23.54
2022-11-23T02:47:55.078Z,23.50
2022-11-23T02:48:26.456Z,23.52
2022-11-23T02:48:57.886Z,23.51
2022-11-23T02:49:29.465Z,23.53
2022-11-23T02:50:01.159Z,23.50
2022-11-23T02:50:32.657Z,23.51
2022-11-23T02:51:04.075Z,23.53
2022-11-23T02:51:35.743Z,23.54
2022-11-23T02:52:07.160Z,23.53
2022-11-23T02:52:38.585Z,23.53
2022-11-23T02:53:10.054Z,23.50
2022-11-23T02:53:41.474Z,23.50
2022-11-23T02:54:12.859Z,23.48
2022-11-23T02:54:44.235Z,23.45
2022-11-23T02:55:15.591Z,23.47
2022-11-23T02:55:46.999Z,23.48
2022-11-23T02:56:18.406Z,23.53
2022-11-23T02:56:49.833Z,23.53
2022-11-23T02:57:21.504Z,23.54
2022-11-23T02:57:52.962Z,23.51
2022-11-23T02:58:24.412Z,23.51
2022-11-23T02:58:55.839Z,23.53
2022-11-23T02:59:27.254Z,23.51
2022-11-23T02:59:58.636Z,23.52
2022-11-23T03:00:30.063Z,23.50
2022-11-23T03:01:01.539Z,23.52
2022-11-23T03:01:33.003Z,23.57
2022-11-23T03:02:04.457Z,23.56
2022-11-23T03:02:35.882Z,23.52
2022-11-23T03:03:07.287Z,23.50
2022-11-23T03:03:38.668Z,23.49
2022-11-23T03:04:10.082Z,23.48
2022-11-23T03:04:41.551Z,23.46
2022-11-23T03:05:12.969Z,23.47
2022-11-23T03:05:44.383Z,23.49
2022-11-23T03:06:15.798Z,23.49
2022-11-23T03:06:47.192Z,23.48
2022-11-23T03:07:18.704Z,23.47
2022-11-23T03:07:50.173Z,23.44
2022-11-23T03:08:21.574Z,23.46
2022-11-23T03:08:53.111Z,23.44
2022-11-23T03:09:24.517Z,23.45
2022-11-23T03:09:55.897Z,23.48
2022-11-23T03:10:27.285Z,23.49
2022-11-23T03:10:58.701Z,23.48
2022-11-23T03:11:30.113Z,23.53
2022-11-23T03:12:01.512Z,23.52
2022-11-23T03:12:32.960Z,23.55
2022-11-23T03:13:04.302Z,23.56
2022-11-23T03:13:35.788Z,23.56
2022-11-23T03:14:07.187Z,23.51
2022-11-23T03:14:38.643Z,23.46
2022-11-23T03:15:10.062Z,23.51
2022-11-23T03:15:41.466Z,23.54
2022-11-23T03:16:12.854Z,23.53
2022-11-23T03:16:44.282Z,23.55
2022-11-23T03:17:15.681Z,23.52
2022-11-23T03:17:47.155Z,23.52
2022-11-23T03:18:18.553Z,23.52
2022-11-23T03:18:50.004Z,23.54
2022-11-23T03:19:21.458Z,23.50
2022-11-23T03:19:52.898Z,23.46
2022-11-23T03:20:24.249Z,23.49
2022-11-23T03:20:55.656Z,23.51
2022-11-23T03:21:27.039Z,23.50
2022-11-23T03:21:58.481Z,23.51
2022-11-23T03:22:29.879Z,23.51
2022-11-23T03:23:01.292Z,23.47
2022-11-23T03:23:32.676Z,23.48
2022-11-23T03:24:04.031Z,23.55
2022-11-23T03:24:35.406Z,23.53
2022-11-23T03:25:06.786Z,23.49
2022-11-23T03:25:38.212Z,23.51
2022-11-23T03:26:12.832Z,23.52
2022-11-23T03:26:44.642Z,23.49
2022-11-23T03:27:16.033Z,23.50
2022-11-23T03:27:47.411Z,23.51
2022-11-23T03:28:18.844Z,23.49
2022-11-23T03:28:50.232Z,23.50
2022-11-23T03:29:21.634Z,23.55
2022-11-23T03:29:53.018Z,23.48
2022-11-23T03:30:24.398Z,23.47
2022-11-23T03:30:55.825Z,23.48
2022-11-23T03:31:27.199Z,23.47
2022-11-23T03:31:58.600Z,23.51
2022-11-23T03:32:30.045Z,23.47
2022-11-23T03:33:01.472Z,23.52
2022-11-23T03:33:32.974Z,23.54
2022-11-23T03:34:04.376Z,23.55
2022-11-23T03:34:35.763Z,23.55
2022-11-23T03:35:07.167Z,23.54
2022-11-23T03:35:38.554Z,23.53
2022-11-23T03:36:09.900Z,23.54
2022-11-23T03:36:41.335Z,23.54
2022-11-23T03:37:12.791Z,23.54
2022-11-23T03:37:44.240Z,23.52
2022-11-23T03:38:15.819Z,23.50
2022-11-23T03:38:47.263Z,23.52
2022-11-23T03:39:18.672Z,23.51
2022-11-23T03:39:50.174Z,23.55
2022-11-23T03:40:21.560Z,23.54
2022-11-23T03:40:52.942Z,23.52
2022-11-23T03:41:24.315Z,23.54
2022-11-23T03:41:55.697Z,23.50
2022-11-23T03:42:27.076Z,23.52
2022-11-23T03:42:58.491Z,23.54
2022-11-23T03:43:29.861Z,23.53
2022-11-23T03:44:01.379Z,23.58
2022-11-23T03:44:32.777Z,23.55
2022-11-23T03:45:04.231Z,23.57
2022-11-23T03:45:35.623Z,23.56
2022-11-23T03:46:07.020Z,23.55
2022-11-23T03:46:38.437Z,23.55
2022-11-23T03:47:09.825Z,23.53
2022-11-23T03:47:41.220Z,23.54
2022-11-23T03:48:12.671Z,23.52
2022-11-23T03:48:44.131Z,23.51
2022-11-23T03:49:15.548Z,23.48
2022-11-23T03:49:46.951Z,23.47
2022-11-23T03:50:18.393Z,23.50
2022-11-23T03:50:49.818Z,23.49
2022-11-23T03:51:21.222Z,23.54
2022-11-23T03:51:52.645Z,23.53
2022-11-23T03:52:24.048Z,23.54
2022-11-23T03:52:55.516Z,23.53
2022-11-23T03:53:26.914Z,23.51
2022-11-23T03:53:58.345Z,23.53
2022-11-23T03:54:29.786Z,23.54
2022-11-23T03:55:01.201Z,23.57
2022-11-23T03:55:32.573Z,23.54
2022-11-23T03:56:04.006Z,23.54
2022-11-23T03:56:35.445Z,23.48
2022-11-23T03:57:06.879Z,23.53
2022-11-23T03:57:38.262Z,23.52
2022-11-23T03:58:09.665Z,23.51
2022-11-23T03:58:41.042Z,23.52
2022-11-23T03:59:12.502Z,23.51
2022-11-23T03:59:43.950Z,23.51
2022-11-23T04:00:15.374Z,23.50
2022-11-23T04:00:46.816Z,23.51
2022-11-23T04:01:18.281Z,23.53
2022-11-23T04:01:49.731Z,23.53
2022-11-23T04:02:21.139Z,23.49
2022-11-23T04:02:52.560Z,23.48
2022-11-23T04:03:23.970Z,23.52
2022-11-23T04:03:55.350Z,23.51
2022-11-23T04:04:26.758Z,23.51
2022-11-23T04:04:58.220Z,23.49
2022-11-23T04:05:29.623Z,23.52
2022-11-23T04:06:01.071Z,23.55
2022-11-23T04:06:32.527Z,23.54
2022-11-23T04:07:04.035Z,23.55
2022-11-23T04:07:35.535Z,23.56
2022-11-23T04:08:07.011Z,23.56
2022-11-23T04:08:38.392Z,23.56
2022-11-23T04:09:09.865Z,23.56
2022-11-23T04:09:41.307Z,23.57
2022-11-23T04:10:12.810Z,23.55
2022-11-23T04:10:44.214Z,23.56
2022-11-23T04:11:15.653Z,23.53
2022-11-23T04:11:47.034Z,23.52
2022-11-23T04:12:18.421Z,23.51
2022-11-23T04:12:49.845Z,23.55
2022-11-23T04:13:21.319Z,23.51
2022-11-23T04:13:52.748Z,23.50
2022-11-23T04:14:24.150Z,23.51
2022-11-23T04:14:55.568Z,23.49
2022-11-23T04:15:27.018Z,23.51
2022-11-23T04:15:58.413Z,23.50
2022-11-23T04:16:29.819Z,23.53
2022-11-23T04:17:01.247Z,23.47
2022-11-23T04:17:32.677Z,23.51
2022-11-23T04:18:04.120Z,23.56
2022-11-23T04:18:35.553Z,23.54
2022-11-23T04:19:06.937Z,23.55
2022-11-23T04:19:38.336Z,23.53
2022-11-23T04:20:09.754Z,23.55
2022-11-23T04:20:41.221Z,23.52
2022-11-23T04:21:12.663Z,23.54
2022-11-23T04:21:44.112Z,23.51
2022-11-23T04:22:15.473Z,23.48
2022-11-23T04:22:46.889Z,23.51
2022-11-23T04:23:18.327Z,23.55
2022-11-23T04:23:49.725Z,23.54
2022-11-23T04:24:21.093Z,23.57
2022-11-23T04:24:52.496Z,23.57
2022-11-23T04:25:23.896Z,23.54
2022-11-23T04:25:55.304Z,23.52
2022-11-23T04:26:26.691Z,23.54
2022-11-23T04:26:58.087Z,23.52
2022-11-23T04:27:29.462Z,23.52
2022-11-23T04:28:00.850Z,23.50
2022-11-23T04:28:32.241Z,23.53
2022-11-23T04:29:03.617Z,23.53
2022-11-23T04:29:35.212Z,23.53
2022-11-23T04:30:06.730Z,23.52
2022-11-23T04:30:38.128Z,23.51
2022-11-23T04:31:09.596Z,23.53
2022-11-23T04:31:40.998Z,23.51
2022-11-23T04:32:12.450Z,23.52
2022-11-23T04:32:43.845Z,23.51
2022-11-23T04:33:15.243Z,23.51
2022-11-23T04:33:46.644Z,23.49
2022-11-23T04:34:18.078Z,23.48
2022-11-23T04:34:49.615Z,23.51
2022-11-23T04:35:21.103Z,23.53
2022-11-23T04:35:52.522Z,23.54
2022-11-23T04:36:24.042Z,23.54
2022-11-23T04:36:55.482Z,23.54
2022-11-23T04:37:26.914Z,23.54
2022-11-23T04:37:58.325Z,23.53
2022-11-23T04:38:29.742Z,23.53
2022-11-23T04:39:01.154Z,23.53
2022-11-23T04:39:32.896Z,23.55
2022-11-23T04:40:04.483Z,23.53
2022-11-23T04:40:36.054Z,23.55
2022-11-23T04:41:07.484Z,23.55
2022-11-23T04:41:38.972Z,23.54
2022-11-23T04:42:10.354Z,23.54
2022-11-23T04:42:41.761Z,23.52
2022-11-23T04:43:13.168Z,23.56
2022-11-23T04:43:44.564Z,23.52
2022-11-23T04:44:15.958Z,23.52
2022-11-23T04:44:47.333Z,23.50
2022-11-23T04:45:18.710Z,23.51
2022-11-23T04:45:50.105Z,23.49
2022-11-23T04:46:21.468Z,23.48
2022-11-23T04:46:52.998Z,23.52
2022-11-23T04:47:24.378Z,23.57
2022-11-23T04:47:55.755Z,23.53
2022-11-23T04:48:27.168Z,23.51
2022-11-23T04:48:58.572Z,23.47
2022-11-23T04:49:30.200Z,23.52
2022-11-23T04:50:01.892Z,23.49
2022-11-23T04:50:33.276Z,23.51
2022-11-23T04:51:04.700Z,23.51
2022-11-23T04:51:36.118Z,23.49
2022-11-23T04:52:07.646Z,23.51
2022-11-23T04:52:39.082Z,23.50
2022-11-23T04:53:10.502Z,23.49
2022-11-23T04:53:41.987Z,23.53
2022-11-23T04:54:13.387Z,23.52
2022-11-23T04:54:44.836Z,23.53
2022-11-23T04:55:16.240Z,23.52
2022-11-23T04:55:47.665Z,23.53
2022-11-23T04:56:19.072Z,23.53
2022-11-23T04:56:50.489Z,23.54
2022-11-23T04:57:21.945Z,23.54
2022-11-23T04:57:53.357Z,23.55
2022-11-23T04:58:26.010Z,23.52
2022-11-23T04:58:58.178Z,23.55
2022-11-23T04:59:29.917Z,23.53
2022-11-23T05:00:01.596Z,23.54
2022-11-23T05:00:32.998Z,23.53
2022-11-23T05:01:04.476Z,23.56
2022-11-23T05:01:35.995Z,23.51
2022-11-23T05:02:07.405Z,23.51
2022-11-23T05:02:38.854Z,23.52
2022-11-23T05:03:10.305Z,23.57
2022-11-23T05:03:41.697Z,23.56
2022-11-23T05:04:17.613Z,23.58
2022-11-23T05:04:49.388Z,23.53
2022-11-23T05:05:20.806Z,23.55
2022-11-23T05:05:52.228Z,23.56
2022-11-23T05:06:23.659Z,23.49
2022-11-23T05:06:55.057Z,23.48
2022-11-23T05:07:26.507Z,23.48
2022-11-23T05:07:57.983Z,23.52
2022-11-23T05:08:29.369Z,23.56
2022-11-23T05:09:00.774Z,23.55
2022-11-23T05:09:32.433Z,23.52
2022-11-23T05:10:03.984Z,23.51
2022-11-23T05:10:35.371Z,23.52
2022-11-23T05:11:06.788Z,23.53
2022-11-23T05:11:38.181Z,23.53
2022-11-23T05:12:09.620Z,23.51
2022-11-23T05:12:41.000Z,23.55
2022-11-23T05:13:12.455Z,23.54
2022-11-23T05:13:43.841Z,23.52
2022-11-23T05:14:15.243Z,23.54
2022-11-23T05:14:46.659Z,23.56
2022-11-23T05:15:18.068Z,23.57
2022-11-23T05:15:49.443Z,23.56
2022-11-23T05:16:20.870Z,23.51
2022-11-23T05:16:52.249Z,23.54
2022-11-23T05:17:23.656Z,23.55
2022-11-23T05:17:58.941Z,23.52
2022-11-23T05:18:30.655Z,23.48
2022-11-23T05:19:02.036Z,23.51
2022-11-23T05:19:33.659Z,23.50
2022-11-23T05:20:05.245Z,23.51
2022-11-23T05:20:36.652Z,23.53
2022-11-23T05:21:08.046Z,23.55
2022-11-23T05:21:39.493Z,23.56
2022-11-23T05:22:10.862Z,23.53
2022-11-23T05:22:42.280Z,23.53
2022-11-23T05:23:13.730Z,23.51
2022-11-23T05:23:45.220Z,23.48
2022-11-23T05:24:16.624Z,23.53
2022-11-23T05:24:48.077Z,23.50
2022-11-23T05:25:19.523Z,23.53
2022-11-23T05:25:50.938Z,23.55
2022-11-23T05:26:22.327Z,23.54
2022-11-23T05:26:56.342Z,23.56
2022-11-23T05:27:28.029Z,23.57
2022-11-23T05:28:11.200Z,23.55
2022-11-23T05:28:48.609Z,23.54
2022-11-23T05:29:20.131Z,23.55
2022-11-23T05:29:51.550Z,23.56
2022-11-23T05:30:23.022Z,23.54
2022-11-23T05:30:54.478Z,23.50
2022-11-23T05:31:25.996Z,23.53
2022-11-23T05:31:57.409Z,23.56
2022-11-23T05:32:28.798Z,23.55
2022-11-23T05:33:00.167Z,23.56
2022-11-23T05:33:31.620Z,23.56
2022-11-23T05:34:03.270Z,23.54
2022-11-23T05:34:34.701Z,23.54
2022-11-23T05:35:06.228Z,23.57
2022-11-23T05:35:37.769Z,23.54
2022-11-23T05:36:09.159Z,23.52
2022-11-23T05:36:42.364Z,23.53
2022-11-23T05:37:14.132Z,23.55
2022-11-23T05:37:45.757Z,23.55
2022-11-23T05:38:17.309Z,23.54
2022-11-23T05:38:48.763Z,23.52
2022-11-23T05:39:20.203Z,23.48
2022-11-23T05:39:51.648Z,23.52
2022-11-23T05:40:23.111Z,23.50
2022-11-23T05:40:54.595Z,23.53
2022-11-23T05:41:25.972Z,23.52
2022-11-23T05:41:57.439Z,23.52
2022-11-23T05:42:28.886Z,23.54
2022-11-23T05:43:00.320Z,23.54
2022-11-23T05:43:31.740Z,23.58
2022-11-23T05:44:03.350Z,23.59
2022-11-23T05:44:34.722Z,23.56
2022-11-23T05:45:11.081Z,23.55
2022-11-23T05:45:43.287Z,23.54
2022-11-23T05:46:14.770Z,23.52
2022-11-23T05:46:46.247Z,23.53
2022-11-23T05:47:17.740Z,23.55
2022-11-23T05:47:49.095Z,23.51
2022-11-23T05:48:20.482Z,23.53
2022-11-23T05:48:51.870Z,23.51
2022-11-23T05:49:23.300Z,23.51
2022-11-23T05:49:54.681Z,23.55
2022-11-23T05:50:26.058Z,23.54
2022-11-23T05:51:03.700Z,23.54
2022-11-23T05:51:36.742Z,23.54
2022-11-23T05:52:08.153Z,23.55
2022-11-23T05:52:39.622Z,23.53
2022-11-23T05:53:11.109Z,23.50
2022-11-23T05:53:42.596Z,23.50
2022-11-23T05:54:13.998Z,23.51
2022-11-23T05:54:45.461Z,23.49
2022-11-23T05:55:16.961Z,23.52
2022-11-23T05:55:48.366Z,23.50
2022-11-23T05:56:19.791Z,23.51
2022-11-23T05:56:51.238Z,23.52
2022-11-23T05:57:22.654Z,23.56
2022-11-23T05:57:54.068Z,23.52
2022-11-23T05:58:25.593Z,23.49
2022-11-23T05:58:57.042Z,23.55
2022-11-23T05:59:28.492Z,23.54
2022-11-23T05:59:59.912Z,23.52
2022-11-23T06:00:31.398Z,23.52
2022-11-23T06:01:02.847Z,23.44
2022-11-23T06:01:34.395Z,23.49
2022-11-23T06:02:05.903Z,23.50
2022-11-23T06:02:41.020Z,23.50
2022-11-23T06:03:12.982Z,23.54
2022-11-23T06:03:44.494Z,23.51
2022-11-23T06:04:16.141Z,23.52
2022-11-23T06:04:47.778Z,23.54
2022-11-23T06:05:19.232Z,23.52
2022-11-23T06:05:50.751Z,23.52
2022-11-23T06:06:22.220Z,23.52
2022-11-23T06:06:53.644Z,23.49
2022-11-23T06:07:25.135Z,23.49
2022-11-23T06:07:56.707Z,23.51
2022-11-23T06:08:28.161Z,23.51
2022-11-23T06:08:59.568Z,23.52
2022-11-23T06:09:31.141Z,23.52
2022-11-23T06:10:02.788Z,23.51
2022-11-23T06:10:34.282Z,23.54
2022-11-23T06:11:05.868Z,23.53
2022-11-23T06:11:37.293Z,23.50
2022-11-23T06:12:08.762Z,23.53
2022-11-23T06:12:40.168Z,23.55
2022-11-23T06:13:11.627Z,23.58
2022-11-23T06:13:43.039Z,23.54
2022-11-23T06:14:14.732Z,23.54
2022-11-23T06:14:46.416Z,23.52
2022-11-23T06:15:17.920Z,23.54
2022-11-23T06:15:49.316Z,23.53
2022-11-23T06:16:20.853Z,23.52
2022-11-23T06:16:52.286Z,23.50
2022-11-23T06:17:23.721Z,23.50
2022-11-23T06:17:55.153Z,23.49
2022-11-23T06:18:26.564Z,23.52
2022-11-23T06:18:57.981Z,23.51
2022-11-23T06:19:29.937Z,23.48
2022-11-23T06:20:01.649Z,23.49
2022-11-23T06:20:33.057Z,23.48
2022-11-23T06:21:04.416Z,23.49
2022-11-23T06:21:35.860Z,23.49
2022-11-23T06:22:07.290Z,23.52
2022-11-23T06:22:38.669Z,23.53
2022-11-23T06:23:10.054Z,23.51
2022-11-23T06:23:41.436Z,23.48
2022-11-23T06:24:12.830Z,23.51
2022-11-23T06:24:44.230Z,23.50
2022-11-23T06:25:15.648Z,23.52
2022-11-23T06:25:47.067Z,23.53
2022-11-23T06:26:18.504Z,23.55
2022-11-23T06:26:49.958Z,23.55
2022-11-23T06:27:21.338Z,23.53
2022-11-23T06:27:52.758Z,23.53
2022-11-23T06:28:24.178Z,23.52
2022-11-23T06:28:55.562Z,23.47
2022-11-23T06:29:26.988Z,23.49
2022-11-23T06:29:58.359Z,23.50
2022-11-23T06:30:29.771Z,23.52
2022-11-23T06:31:01.160Z,23.50
2022-11-23T06:31:32.547Z,23.52
2022-11-23T06:32:04.005Z,23.52
2022-11-23T06:32:35.394Z,23.52
2022-11-23T06:33:06.838Z,23.51
2022-11-23T06:33:38.248Z,23.49
2022-11-23T06:34:09.671Z,23.49
2022-11-23T06:34:41.109Z,23.46
2022-11-23T06:35:12.513Z,23.48
2022-11-23T06:35:43.892Z,23.49
2022-11-23T06:36:15.309Z,23.48
2022-11-23T06:36:46.741Z,23.47
2022-11-23T06:37:18.235Z,23.44
2022-11-23T06:37:49.637Z,23.49
2022-11-23T06:38:21.108Z,23.53
2022-11-23T06:38:52.515Z,23.49
2022-11-23T06:39:23.954Z,23.52
2022-11-23T06:39:55.329Z,23.53
2022-11-23T06:40:26.763Z,23.50
2022-11-23T06:40:58.131Z,23.47
2022-11-23T06:41:32.438Z,23.48
2022-11-23T06:42:23.804Z,23.48
2022-11-23T06:42:55.571Z,23.43
2022-11-23T06:43:26.956Z,23.44
2022-11-23T06:43:58.352Z,23.47
2022-11-23T06:44:29.766Z,23.46
2022-11-23T06:45:01.185Z,23.48
2022-11-23T06:45:32.635Z,23.48
2022-11-23T06:46:04.053Z,23.48